Time;durP1;ratioP1;P1;durP2;ratioP2;P2;SDS_P1;SDS_P2;PMS_P1;PMS_P2;Temp;Humidity;BMP_temperature;BMP_pressure;BME280_temperature;BME280_humidity;BME280_pressure;Samples;Min_cycle;Max_cycle;Signal;HPM_P1;HPM_P2
2023/12/23 00:02:21;;;;;;;9.88;1.40;;;6.10;99.90;;;;;;5088261;28;20040;-69
2023/12/23 00:04:47;;;;;;;6.43;0.90;;;6.10;99.90;;;;;;5090159;28;20476;-69
2023/12/23 00:07:14;;;;;;;9.25;1.23;;;6.10;99.90;;;;;;5101432;28;20467;-70
2023/12/23 00:09:41;;;;;;;8.25;1.10;;;6.00;99.90;;;;;;5093711;28;20270;-70
2023/12/23 00:12:08;;;;;;;7.40;2.17;;;6.00;99.90;;;;;;5084664;28;20135;-76
2023/12/23 00:14:35;;;;;;;12.55;1.50;;;6.00;99.90;;;;;;5073508;28;20038;-70
2023/12/23 00:17:01;;;;;;;;;;;6.00;99.90;;;;;;5091208;28;20047;-69
2023/12/23 00:19:27;;;;;;;7.95;1.17;;;6.00;99.90;;;;;;5088611;28;19955;-70
2023/12/23 00:21:54;;;;;;;6.65;1.10;;;6.00;99.90;;;;;;5090104;28;20036;-70
2023/12/23 00:24:24;;;;;;;10.95;1.67;;;6.00;99.90;;;;;;5090485;28;20054;-70
2023/12/23 00:26:50;;;;;;;8.02;1.38;;;6.00;99.90;;;;;;5091234;28;20110;-68
2023/12/23 00:29:22;;;;;;;12.57;2.72;;;6.00;99.90;;;;;;5099172;28;20074;-71
2023/12/23 00:31:48;;;;;;;7.80;2.35;;;6.00;99.90;;;;;;5108412;28;20043;-72
2023/12/23 00:34:14;;;;;;;12.25;1.85;;;6.00;99.90;;;;;;5089985;28;20070;-70
2023/12/23 00:36:40;;;;;;;8.32;1.05;;;6.00;99.90;;;;;;5090084;28;20240;-70
2023/12/23 00:39:10;;;;;;;14.00;2.67;;;6.10;99.90;;;;;;5092776;28;20136;-69
2023/12/23 00:41:37;;;;;;;9.73;1.52;;;6.10;99.90;;;;;;5090241;28;20450;-71
2023/12/23 00:44:03;;;;;;;10.55;1.50;;;6.20;99.90;;;;;;5090110;28;20407;-69
2023/12/23 00:46:29;;;;;;;14.07;2.75;;;6.30;99.90;;;;;;5089434;28;20051;-70
2023/12/23 00:48:56;;;;;;;12.65;2.22;;;6.20;99.90;;;;;;5074216;28;20044;-70
2023/12/23 00:51:22;;;;;;;10.27;1.92;;;6.20;99.90;;;;;;5073486;28;20036;-71
2023/12/23 00:53:48;;;;;;;8.57;1.33;;;6.30;99.90;;;;;;5089698;28;20396;-70
2023/12/23 00:56:22;;;;;;;7.10;1.23;;;6.30;99.90;;;;;;5087663;28;20067;-70
2023/12/23 00:58:49;;;;;;;6.95;1.40;;;6.30;99.90;;;;;;5090430;28;20419;-70
2023/12/23 01:01:16;;;;;;;9.45;1.50;;;6.30;99.90;;;;;;5090623;28;20039;-70
2023/12/23 01:03:43;;;;;;;;;;;6.30;99.90;;;;;;5073314;28;20188;-70
2023/12/23 01:06:09;;;;;;;7.93;1.60;;;6.30;99.90;;;;;;5090200;28;19916;-70
2023/12/23 01:08:35;;;;;;;11.75;1.88;;;6.40;99.90;;;;;;5089279;28;20046;-70
2023/12/23 01:11:04;;;;;;;11.40;1.43;;;6.40;99.90;;;;;;5089521;28;20115;-69
2023/12/23 01:13:35;;;;;;;7.25;1.70;;;6.40;99.90;;;;;;5089585;28;20122;-69
2023/12/23 01:16:01;;;;;;;8.43;2.00;;;6.50;99.90;;;;;;5085884;28;20515;-70
2023/12/23 01:18:26;;;;;;;10.90;1.37;;;6.40;99.90;;;;;;5090228;28;20043;-70
2023/12/23 01:20:52;;;;;;;7.57;1.37;;;6.40;99.90;;;;;;5082945;28;20128;-70
2023/12/23 01:23:18;;;;;;;5.27;1.20;;;6.40;99.90;;;;;;5090700;28;20109;-70
2023/12/23 01:25:44;;;;;;;12.20;1.83;;;6.50;99.90;;;;;;5081523;28;20413;-70
2023/12/23 01:28:10;;;;;;;;;;;6.50;99.90;;;;;;5089163;28;20052;-69
2023/12/23 01:30:36;;;;;;;13.05;2.22;;;6.40;99.90;;;;;;5087789;28;19992;-69
2023/12/23 01:33:01;;;;;;;4.13;1.15;;;6.40;99.90;;;;;;5081067;28;20052;-70
2023/12/23 01:35:27;;;;;;;6.97;1.60;;;6.40;99.90;;;;;;5087282;28;20051;-69
2023/12/23 01:37:53;;;;;;;11.60;1.83;;;6.40;99.90;;;;;;5087251;28;20046;-70
2023/12/23 01:40:19;;;;;;;9.60;1.23;;;6.40;99.90;;;;;;5085540;28;20432;-70
2023/12/23 01:42:47;;;;;;;7.17;1.60;;;6.40;99.90;;;;;;5070538;28;20483;-70
2023/12/23 01:45:13;;;;;;;5.13;1.08;;;6.40;99.90;;;;;;5084053;28;20127;-70
2023/12/23 01:47:46;;;;;;;7.07;1.20;;;6.40;99.90;;;;;;5089832;28;20463;-70
2023/12/23 01:50:13;;;;;;;6.40;1.63;;;6.40;99.90;;;;;;5081122;28;20036;-69
2023/12/23 01:52:39;;;;;;;8.60;1.80;;;6.50;99.90;;;;;;5088463;28;20122;-70
2023/12/23 01:55:08;;;;;;;11.32;1.42;;;6.50;99.90;;;;;;5082798;28;20051;-69
2023/12/23 01:57:34;;;;;;;5.25;1.30;;;6.60;99.90;;;;;;5087521;28;20044;-68
2023/12/23 02:00:00;;;;;;;5.18;1.02;;;6.60;99.90;;;;;;5085531;28;20051;-68
2023/12/23 02:02:27;;;;;;;9.43;1.07;;;6.60;99.90;;;;;;5088162;28;20142;-69
2023/12/23 02:04:56;;;;;;;4.78;0.65;;;6.60;99.90;;;;;;5083666;28;20079;-68
2023/12/23 02:07:21;;;;;;;7.90;1.20;;;6.50;99.90;;;;;;5087611;28;20048;-68
2023/12/23 02:09:47;;;;;;;7.77;0.70;;;6.40;99.90;;;;;;5083858;28;20036;-68
2023/12/23 02:13:00;;;;;;;5.85;1.25;;;6.40;99.90;;;;;;5077936;28;20044;-68
2023/12/23 02:15:27;;;;;;;10.95;2.00;;;6.30;99.90;;;;;;5081849;28;20056;-68
2023/12/23 02:18:03;;;;;;;5.00;1.02;;;6.30;99.90;;;;;;5087905;28;20038;-68
2023/12/23 02:20:28;;;;;;;5.25;0.82;;;6.20;99.90;;;;;;5089364;28;20460;-68
2023/12/23 02:22:54;;;;;;;7.03;0.87;;;6.10;99.90;;;;;;5092184;28;20075;-69
2023/12/23 02:25:23;;;;;;;2.97;0.68;;;6.00;99.90;;;;;;5087088;28;20048;-68
2023/12/23 02:27:59;;;;;;;5.72;0.80;;;6.00;99.90;;;;;;5087399;28;20468;-68
2023/12/23 02:30:26;;;;;;;7.40;0.70;;;6.00;99.90;;;;;;5088885;28;20040;-68
2023/12/23 02:32:52;;;;;;;6.60;0.70;;;6.00;99.90;;;;;;5084176;28;20488;-68
2023/12/23 02:35:18;;;;;;;;;;;5.90;99.90;;;;;;5086012;28;20044;-68
2023/12/23 02:37:44;;;;;;;6.43;1.17;;;5.90;99.90;;;;;;5086541;28;19927;-68
2023/12/23 02:40:09;;;;;;;6.00;1.27;;;5.90;99.90;;;;;;5083148;28;20091;-69
2023/12/23 02:42:35;;;;;;;7.95;1.08;;;5.90;99.90;;;;;;5087000;28;20040;-68
2023/12/23 02:45:03;;;;;;;4.57;1.00;;;5.90;99.90;;;;;;5087067;28;20043;-68
2023/12/23 02:47:28;;;;;;;5.90;0.73;;;5.90;99.90;;;;;;5088738;28;20039;-68
2023/12/23 02:49:54;;;;;;;4.33;0.90;;;5.80;99.90;;;;;;5088932;28;20455;-68
2023/12/23 02:52:19;;;;;;;10.10;0.97;;;5.80;99.90;;;;;;5085700;28;20044;-68
2023/12/23 02:54:45;;;;;;;5.10;0.70;;;5.80;99.90;;;;;;5086498;28;20029;-68
2023/12/23 02:57:11;;;;;;;3.73;0.93;;;5.80;99.90;;;;;;5085138;28;20044;-68
2023/12/23 02:59:39;;;;;;;5.00;1.08;;;5.80;99.90;;;;;;5083409;28;20297;-68
2023/12/23 03:02:04;;;;;;;10.57;1.00;;;5.80;99.90;;;;;;5083710;28;20055;-68
2023/12/23 03:04:32;;;;;;;5.10;1.57;;;5.80;99.90;;;;;;5087799;28;20040;-68
2023/12/23 03:06:58;;;;;;;6.32;0.75;;;5.80;99.90;;;;;;5087659;28;20126;-68
2023/12/23 03:09:24;;;;;;;10.27;1.70;;;5.80;99.90;;;;;;5086684;28;20500;-68
2023/12/23 03:11:49;;;;;;;5.33;0.93;;;5.80;99.90;;;;;;5083409;28;20036;-68
2023/12/23 03:14:15;;;;;;;4.00;0.40;;;5.80;99.90;;;;;;5087447;28;20446;-68
2023/12/23 03:16:41;;;;;;;5.93;0.97;;;5.80;99.90;;;;;;5087950;28;20114;-68
2023/12/23 03:19:09;;;;;;;6.60;0.87;;;5.70;99.90;;;;;;5082162;28;20039;-68
2023/12/23 03:21:35;;;;;;;8.30;0.98;;;5.80;99.90;;;;;;5087354;28;20073;-68
2023/12/23 03:24:00;;;;;;;4.23;0.50;;;5.80;99.90;;;;;;5083056;28;20089;-69
2023/12/23 03:26:26;;;;;;;6.07;0.60;;;5.80;99.90;;;;;;5084757;28;20047;-68
2023/12/23 03:28:52;;;;;;;8.33;1.20;;;5.80;99.90;;;;;;5070445;28;20489;-68
2023/12/23 03:31:18;;;;;;;5.33;0.80;;;5.80;99.90;;;;;;5080649;28;20118;-68
2023/12/23 03:33:44;;;;;;;3.00;0.70;;;5.80;99.90;;;;;;5087020;28;20032;-68
2023/12/23 03:36:09;;;;;;;2.77;0.73;;;5.80;99.90;;;;;;5088640;28;20052;-68
2023/12/23 03:38:35;;;;;;;3.00;0.47;;;5.80;99.90;;;;;;5090713;28;20036;-68
2023/12/23 03:41:03;;;;;;;4.00;0.82;;;5.80;99.90;;;;;;5092347;28;20036;-67
2023/12/23 03:43:29;;;;;;;2.87;0.70;;;5.80;99.90;;;;;;5103497;28;20039;-68
2023/12/23 03:45:55;;;;;;;6.63;0.83;;;5.80;99.90;;;;;;5092667;28;20036;-68
2023/12/23 03:48:20;;;;;;;5.90;0.80;;;5.80;99.90;;;;;;5091138;28;20048;-68
2023/12/23 03:50:46;;;;;;;3.43;0.70;;;5.80;99.90;;;;;;5090321;28;20048;-68
2023/12/23 03:53:11;;;;;;;3.20;0.60;;;5.80;99.90;;;;;;5089566;28;20431;-68
2023/12/23 03:55:39;;;;;;;5.60;0.53;;;5.90;99.90;;;;;;5091545;28;20688;-68
2023/12/23 03:58:04;;;;;;;3.17;0.65;;;5.90;99.90;;;;;;5090463;28;20390;-68
2023/12/23 04:00:30;;;;;;;9.40;0.57;;;5.90;99.90;;;;;;5087940;28;20047;-69
2023/12/23 04:02:57;;;;;;;3.20;0.70;;;5.90;99.90;;;;;;5088565;28;20040;-69
2023/12/23 04:05:23;;;;;;;2.60;0.40;;;5.90;99.90;;;;;;5089524;28;20114;-68
2023/12/23 04:07:49;;;;;;;5.37;0.43;;;5.90;99.90;;;;;;5080702;28;20038;-69
2023/12/23 04:10:20;;;;;;;2.15;0.50;;;5.90;99.90;;;;;;5068628;28;20123;-69
2023/12/23 04:12:46;;;;;;;3.03;1.15;;;5.90;99.90;;;;;;5086148;28;20056;-68
2023/12/23 04:15:11;;;;;;;3.37;0.50;;;5.90;99.90;;;;;;5087687;28;20047;-68
2023/12/23 04:17:40;;;;;;;1.20;0.50;;;5.90;99.90;;;;;;5090424;28;20088;-68
2023/12/23 04:20:07;;;;;;;0.90;0.30;;;5.90;99.90;;;;;;5089911;28;20047;-68
2023/12/23 04:22:32;;;;;;;2.92;0.50;;;6.00;99.90;;;;;;5097478;28;20036;-68
2023/12/23 04:25:02;;;;;;;3.73;0.70;;;5.90;99.90;;;;;;5091027;28;20093;-68
2023/12/23 04:27:27;;;;;;;3.15;0.70;;;5.90;99.90;;;;;;5087200;28;20396;-68
2023/12/23 04:29:53;;;;;;;2.40;0.70;;;6.00;99.90;;;;;;5084034;28;20078;-69
2023/12/23 04:32:18;;;;;;;2.80;0.40;;;6.00;99.90;;;;;;5089057;28;20072;-69
2023/12/23 04:34:44;;;;;;;4.00;0.80;;;6.00;99.90;;;;;;5089077;28;20044;-68
2023/12/23 04:37:09;;;;;;;1.87;0.80;;;6.00;99.90;;;;;;5088374;28;20032;-68
2023/12/23 04:39:35;;;;;;;1.03;0.30;;;6.00;99.90;;;;;;5090200;28;20111;-68
2023/12/23 04:42:00;;;;;;;2.17;0.70;;;6.00;99.90;;;;;;5086105;28;20036;-68
2023/12/23 04:44:27;;;;;;;2.50;0.80;;;6.00;99.90;;;;;;5090437;28;20079;-68
2023/12/23 04:46:54;;;;;;;1.60;0.70;;;6.00;99.90;;;;;;5087029;28;20111;-68
2023/12/23 04:49:22;;;;;;;3.70;0.50;;;6.00;99.90;;;;;;5088415;28;20522;-68
2023/12/23 04:51:53;;;;;;;1.75;0.75;;;6.00;99.90;;;;;;5089807;28;20506;-69
2023/12/23 04:54:19;;;;;;;1.55;0.45;;;6.00;99.90;;;;;;5090879;28;20428;-69
2023/12/23 04:56:45;;;;;;;1.33;0.50;;;6.00;99.90;;;;;;5089305;28;20090;-69
2023/12/23 04:59:11;;;;;;;1.67;0.30;;;6.00;99.90;;;;;;5080493;28;20071;-69
2023/12/23 05:01:36;;;;;;;2.27;0.33;;;6.00;99.90;;;;;;5078713;28;20305;-69
2023/12/23 05:04:02;;;;;;;2.63;0.27;;;6.00;99.90;;;;;;5079435;28;20044;-69
2023/12/23 05:06:31;;;;;;;2.87;0.37;;;6.00;99.90;;;;;;5088879;28;20043;-69
2023/12/23 05:08:56;;;;;;;1.08;0.30;;;6.00;99.90;;;;;;5090813;28;20036;-69
2023/12/23 05:11:22;;;;;;;0.77;0.40;;;6.00;99.90;;;;;;5085319;28;20043;-69
2023/12/23 05:13:48;;;;;;;0.53;0.30;;;6.10;99.90;;;;;;5086623;28;20400;-69
2023/12/23 05:16:15;;;;;;;1.03;0.30;;;6.10;99.90;;;;;;5090169;28;20051;-69
2023/12/23 05:18:41;;;;;;;2.25;0.50;;;6.10;99.90;;;;;;5076012;28;20036;-68
2023/12/23 05:21:07;;;;;;;1.60;0.50;;;6.10;99.90;;;;;;5090711;28;20412;-69
2023/12/23 05:23:32;;;;;;;1.10;0.40;;;6.00;99.90;;;;;;5089306;28;20489;-69
2023/12/23 05:26:00;;;;;;;2.13;0.77;;;6.10;99.90;;;;;;5089051;28;20054;-69
2023/12/23 05:28:26;;;;;;;4.03;0.90;;;6.10;99.90;;;;;;5090773;28;20056;-68
2023/12/23 05:30:51;;;;;;;3.40;0.50;;;6.10;99.90;;;;;;5087872;28;20133;-68
2023/12/23 05:33:18;;;;;;;1.90;0.30;;;6.10;99.90;;;;;;5069262;28;20051;-68
2023/12/23 05:35:44;;;;;;;0.85;0.40;;;6.10;99.90;;;;;;5088275;28;20063;-68
2023/12/23 05:38:10;;;;;;;2.10;0.60;;;6.10;99.90;;;;;;5087792;28;20069;-68
2023/12/23 05:40:37;;;;;;;1.93;0.90;;;6.10;99.90;;;;;;5087920;28;20047;-69
2023/12/23 05:43:05;;;;;;;1.98;0.75;;;6.10;99.90;;;;;;5088892;28;20055;-68
2023/12/23 05:45:31;;;;;;;1.70;0.75;;;6.10;99.90;;;;;;5081275;28;20040;-68
2023/12/23 05:47:56;;;;;;;1.07;0.50;;;6.10;99.90;;;;;;5063239;28;20094;-68
2023/12/23 05:50:22;;;;;;;1.17;0.60;;;6.10;99.90;;;;;;5086532;28;20127;-68
2023/12/23 05:52:48;;;;;;;0.90;0.43;;;6.10;99.90;;;;;;5086202;28;20433;-69
2023/12/23 05:55:13;;;;;;;1.00;0.40;;;6.10;99.90;;;;;;5083437;28;20044;-69
2023/12/23 05:57:39;;;;;;;1.67;0.60;;;6.10;99.90;;;;;;5087834;28;20085;-69
2023/12/23 06:00:06;;;;;;;3.17;0.67;;;6.10;99.90;;;;;;5088232;28;20035;-70
2023/12/23 06:02:31;;;;;;;;;;;6.10;99.90;;;;;;5087356;28;20152;-69
2023/12/23 06:04:58;;;;;;;2.40;0.63;;;6.20;99.90;;;;;;5084377;28;20406;-68
2023/12/23 06:07:23;;;;;;;2.00;0.77;;;6.30;99.90;;;;;;5084376;28;20043;-69
2023/12/23 06:09:51;;;;;;;1.27;0.57;;;6.40;99.90;;;;;;5089334;28;20128;-69
2023/12/23 06:12:17;;;;;;;2.88;0.82;;;6.40;99.90;;;;;;5088801;28;20048;-69
2023/12/23 06:14:43;;;;;;;2.00;0.47;;;6.50;99.90;;;;;;5083810;28;20033;-69
2023/12/23 06:17:11;;;;;;;4.20;0.60;;;6.50;99.90;;;;;;5088045;28;20051;-69
2023/12/23 06:19:40;;;;;;;2.55;0.52;;;6.50;99.90;;;;;;5081741;28;20044;-69
2023/12/23 06:22:05;;;;;;;2.10;0.60;;;6.60;99.90;;;;;;5081740;28;20150;-69
2023/12/23 06:24:31;;;;;;;2.07;0.40;;;6.60;99.90;;;;;;5082352;28;20465;-69
2023/12/23 06:26:56;;;;;;;1.90;0.53;;;6.60;99.90;;;;;;5080740;28;20183;-69
2023/12/23 06:29:22;;;;;;;1.40;0.40;;;6.60;99.90;;;;;;5085325;28;20404;-69
2023/12/23 06:31:48;;;;;;;6.43;0.70;;;6.70;99.90;;;;;;5082362;28;20059;-70
2023/12/23 06:34:13;;;;;;;5.40;1.10;;;6.80;99.90;;;;;;5084610;28;20048;-69
2023/12/23 06:36:41;;;;;;;4.43;0.77;;;6.90;99.90;;;;;;5085399;28;20119;-69
2023/12/23 06:39:06;;;;;;;1.92;0.60;;;7.00;99.90;;;;;;5086384;28;20381;-69
2023/12/23 06:41:32;;;;;;;0.80;0.50;;;7.00;99.90;;;;;;5086546;28;20181;-69
2023/12/23 06:43:58;;;;;;;2.97;0.60;;;7.10;99.90;;;;;;5083169;28;20126;-69
2023/12/23 06:46:23;;;;;;;7.10;0.87;;;7.10;99.90;;;;;;5087172;28;20048;-69
2023/12/23 06:48:51;;;;;;;5.47;1.00;;;7.10;99.90;;;;;;5085402;28;20107;-69
2023/12/23 06:51:16;;;;;;;3.30;0.40;;;7.20;99.90;;;;;;5087638;28;20048;-69
2023/12/23 06:53:42;;;;;;;2.60;0.40;;;7.10;99.90;;;;;;5084669;28;20044;-69
2023/12/23 06:56:08;;;;;;;3.87;0.60;;;7.20;99.90;;;;;;5082465;28;20048;-69
2023/12/23 06:58:33;;;;;;;1.33;0.40;;;7.10;99.90;;;;;;5081914;28;20036;-69
2023/12/23 07:00:59;;;;;;;1.70;0.73;;;7.10;99.90;;;;;;5085034;28;20075;-69
2023/12/23 07:03:25;;;;;;;2.13;0.93;;;7.00;99.90;;;;;;5086631;28;20434;-69
2023/12/23 07:05:50;;;;;;;1.60;0.47;;;7.00;99.90;;;;;;5077079;28;20480;-69
2023/12/23 07:08:16;;;;;;;2.17;0.60;;;7.00;99.90;;;;;;5080992;28;20063;-69
2023/12/23 07:10:44;;;;;;;4.93;0.65;;;6.90;99.90;;;;;;5087809;28;20507;-69
2023/12/23 07:13:10;;;;;;;0.68;0.30;;;6.90;99.90;;;;;;5085257;28;20162;-69
2023/12/23 07:15:35;;;;;;;0.70;0.20;;;6.80;99.90;;;;;;5083420;28;20131;-69
2023/12/23 07:18:01;;;;;;;3.67;0.70;;;6.80;99.90;;;;;;5089350;28;20035;-69
2023/12/23 07:20:27;;;;;;;0.80;0.33;;;6.70;99.90;;;;;;5088716;28;20082;-69
2023/12/23 07:22:56;;;;;;;0.88;0.32;;;6.70;99.90;;;;;;5091605;28;20412;-69
2023/12/23 07:25:21;;;;;;;1.20;0.40;;;6.60;99.90;;;;;;5091481;28;20028;-69
2023/12/23 07:27:47;;;;;;;1.13;0.40;;;6.60;99.90;;;;;;5099054;28;20059;-69
2023/12/23 07:30:15;;;;;;;0.57;0.30;;;6.60;99.90;;;;;;5085704;28;20032;-69
2023/12/23 07:32:41;;;;;;;0.60;0.40;;;6.50;99.90;;;;;;5080005;28;20047;-68
2023/12/23 07:35:07;;;;;;;1.75;0.82;;;6.40;99.90;;;;;;5074977;28;20098;-68
2023/12/23 07:37:33;;;;;;;1.30;0.55;;;6.40;99.90;;;;;;5077128;28;20082;-68
2023/12/23 07:39:58;;;;;;;0.60;0.40;;;6.40;99.90;;;;;;5088216;28;20060;-69
2023/12/23 07:42:24;;;;;;;0.87;0.50;;;6.30;99.90;;;;;;5090331;28;20036;-68
2023/12/23 07:44:49;;;;;;;1.40;0.70;;;6.20;99.90;;;;;;5090931;28;20031;-68
2023/12/23 07:47:16;;;;;;;2.43;0.70;;;6.20;99.90;;;;;;5086015;28;20090;-69
2023/12/23 07:49:42;;;;;;;2.83;0.77;;;6.20;99.90;;;;;;5088206;28;20041;-69
2023/12/23 07:52:07;;;;;;;1.27;0.60;;;6.10;99.90;;;;;;5088476;28;20049;-68
2023/12/23 07:54:36;;;;;;;0.83;0.40;;;6.10;99.90;;;;;;5077729;28;20078;-69
2023/12/23 07:57:04;;;;;;;0.93;0.50;;;6.10;99.90;;;;;;5086695;28;20044;-68
2023/12/23 07:59:30;;;;;;;1.35;0.70;;;6.10;99.90;;;;;;5087405;28;20491;-69
2023/12/23 08:01:55;;;;;;;3.17;1.00;;;6.10;99.90;;;;;;5097537;28;20031;-69
2023/12/23 08:04:21;;;;;;;7.13;2.53;;;6.00;99.90;;;;;;5095304;28;20036;-69
2023/12/23 08:06:47;;;;;;;3.13;1.23;;;6.10;99.90;;;;;;5088528;28;20065;-68
2023/12/23 08:09:13;;;;;;;2.10;0.87;;;6.00;99.90;;;;;;5094934;28;20043;-69
2023/12/23 08:11:38;;;;;;;4.20;1.30;;;6.10;99.90;;;;;;5089609;28;20074;-68
2023/12/23 08:14:04;;;;;;;6.60;2.87;;;6.00;99.90;;;;;;5091671;28;20486;-68
2023/12/23 08:16:30;;;;;;;1.87;1.17;;;6.00;99.90;;;;;;5090854;28;20046;-69
2023/12/23 08:18:55;;;;;;;1.17;0.70;;;6.00;99.90;;;;;;5088150;28;20127;-68
2023/12/23 08:21:23;;;;;;;1.60;1.03;;;6.00;99.90;;;;;;5089864;28;20363;-68
2023/12/23 08:23:49;;;;;;;1.42;0.70;;;5.90;99.90;;;;;;5081074;28;20040;-68
2023/12/23 08:26:17;;;;;;;1.00;0.60;;;6.00;99.90;;;;;;5087840;28;20370;-69
2023/12/23 08:28:43;;;;;;;1.00;0.60;;;5.90;99.90;;;;;;5089764;28;20254;-69
2023/12/23 08:31:08;;;;;;;1.40;0.60;;;5.90;99.90;;;;;;5087241;28;20086;-68
2023/12/23 08:33:34;;;;;;;0.53;0.40;;;5.90;99.90;;;;;;5087280;28;20363;-69
2023/12/23 08:35:59;;;;;;;1.10;0.70;;;5.90;99.90;;;;;;5083454;28;20037;-68
2023/12/23 08:38:28;;;;;;;1.40;0.70;;;5.90;99.90;;;;;;5087509;28;20124;-69
2023/12/23 08:40:53;;;;;;;3.17;1.15;;;5.90;99.90;;;;;;5087700;28;20058;-68
2023/12/23 08:43:19;;;;;;;2.10;0.60;;;5.90;99.90;;;;;;5085089;28;20424;-68
2023/12/23 08:45:44;;;;;;;1.10;0.60;;;5.90;99.90;;;;;;5086185;28;20040;-68
2023/12/23 08:48:10;;;;;;;1.90;0.87;;;5.90;99.90;;;;;;5087606;28;20040;-68
2023/12/23 08:50:35;;;;;;;4.97;2.43;;;5.80;99.90;;;;;;5077550;28;20499;-68
2023/12/23 08:53:02;;;;;;;2.80;1.20;;;5.90;99.90;;;;;;5078745;28;20047;-68
2023/12/23 08:55:28;;;;;;;2.55;1.35;;;5.90;99.90;;;;;;5087413;28;20056;-68
2023/12/23 08:57:56;;;;;;;3.33;1.60;;;5.90;99.90;;;;;;5088252;28;20043;-68
2023/12/23 09:00:22;;;;;;;4.13;2.10;;;5.90;99.90;;;;;;5083382;28;20071;-69
2023/12/23 09:02:47;;;;;;;4.27;2.17;;;5.90;99.90;;;;;;5080463;28;20546;-68
2023/12/23 09:05:13;;;;;;;5.20;3.60;;;5.90;99.90;;;;;;5084529;28;20443;-68
2023/12/23 09:07:39;;;;;;;2.70;1.80;;;5.90;99.90;;;;;;5092253;28;20040;-68
2023/12/23 09:10:05;;;;;;;3.23;1.57;;;5.90;99.90;;;;;;5087094;28;20075;-69
2023/12/23 09:12:33;;;;;;;3.72;1.67;;;5.90;99.90;;;;;;5079759;28;20686;-69
2023/12/23 09:14:59;;;;;;;4.63;1.48;;;5.90;99.90;;;;;;5065145;28;20058;-69
2023/12/23 09:17:25;;;;;;;2.13;1.40;;;5.90;99.90;;;;;;5087925;28;20032;-68
2023/12/23 09:19:50;;;;;;;4.53;1.80;;;5.90;99.90;;;;;;5090553;28;20055;-68
2023/12/23 09:22:16;;;;;;;2.03;1.10;;;5.90;99.90;;;;;;5086053;28;20489;-68
2023/12/23 09:24:45;;;;;;;2.37;1.20;;;5.90;99.90;;;;;;5089561;28;20362;-68
2023/12/23 09:27:11;;;;;;;1.80;1.00;;;5.90;99.90;;;;;;5056362;28;20408;-68
2023/12/23 09:29:36;;;;;;;2.10;0.83;;;5.90;99.90;;;;;;5088868;28;20044;-69
2023/12/23 09:32:02;;;;;;;1.27;0.60;;;5.90;99.90;;;;;;5090835;28;21003;-68
2023/12/23 09:34:28;;;;;;;1.38;0.60;;;5.90;99.90;;;;;;5087477;28;20070;-69
2023/12/23 09:36:54;;;;;;;0.63;0.40;;;5.90;99.90;;;;;;5088319;28;20036;-68
2023/12/23 09:39:19;;;;;;;0.60;0.30;;;5.90;99.90;;;;;;5089947;28;20329;-68
2023/12/23 09:41:45;;;;;;;0.83;0.37;;;5.90;99.90;;;;;;5088272;28;20059;-69
2023/12/23 09:44:11;;;;;;;0.97;0.47;;;5.90;99.90;;;;;;5089707;28;20079;-68
2023/12/23 09:46:37;;;;;;;5.23;0.60;;;5.90;99.90;;;;;;5084939;28;20039;-68
2023/12/23 09:49:03;;;;;;;1.38;0.70;;;5.90;99.90;;;;;;5082949;28;20052;-68
2023/12/23 09:51:31;;;;;;;2.42;1.13;;;5.90;99.90;;;;;;5080575;28;20469;-69
2023/12/23 09:54:01;;;;;;;2.22;0.90;;;5.90;99.90;;;;;;5088007;28;20040;-68
2023/12/23 09:56:30;;;;;;;1.95;0.73;;;5.90;99.90;;;;;;5086494;28;20048;-69
2023/12/23 09:58:56;;;;;;;2.08;1.10;;;6.00;99.90;;;;;;5089601;28;20344;-69
2023/12/23 10:01:22;;;;;;;2.00;0.75;;;6.00;99.90;;;;;;5089078;28;20508;-69
2023/12/23 10:03:49;;;;;;;1.63;0.68;;;6.00;99.90;;;;;;5084058;28;20134;-69
2023/12/23 10:06:18;;;;;;;2.08;1.00;;;6.00;99.90;;;;;;5083071;28;20051;-68
2023/12/23 10:08:44;;;;;;;1.73;0.75;;;6.00;99.90;;;;;;5087481;28;20459;-69
2023/12/23 10:11:10;;;;;;;1.20;0.60;;;6.00;99.90;;;;;;5085262;28;20139;-68
2023/12/23 10:13:41;;;;;;;1.33;0.53;;;6.10;99.90;;;;;;5087377;28;20523;-69
2023/12/23 10:16:10;;;;;;;3.45;0.85;;;6.10;99.90;;;;;;5085699;28;20055;-68
2023/12/23 10:18:39;;;;;;;1.30;0.70;;;6.10;99.90;;;;;;5088565;28;20040;-69
2023/12/23 10:21:05;;;;;;;3.78;1.05;;;6.10;99.90;;;;;;5089252;28;20040;-68
2023/12/23 10:23:32;;;;;;;3.50;1.23;;;6.10;99.90;;;;;;5087604;28;20036;-68
2023/12/23 10:25:58;;;;;;;6.15;1.80;;;6.10;99.90;;;;;;5083485;28;20525;-68
2023/12/23 10:28:26;;;;;;;3.00;1.50;;;6.20;99.90;;;;;;5081163;28;20047;-69
2023/12/23 10:30:59;;;;;;;3.03;1.30;;;6.30;99.90;;;;;;5087386;28;20135;-68
2023/12/23 10:33:32;;;;;;;7.13;2.08;;;6.30;99.90;;;;;;5088618;28;20387;-67
2023/12/23 10:35:58;;;;;;;5.25;1.70;;;6.50;99.90;;;;;;5089100;28;20040;-68
2023/12/23 10:38:26;;;;;;;2.85;1.20;;;6.50;99.90;;;;;;5087594;28;20046;-68
2023/12/23 10:41:25;;;;;;;7.60;1.70;;;6.50;99.90;;;;;;5070574;28;20080;-69
2023/12/23 10:43:54;;;;;;;5.57;2.15;;;6.60;99.90;;;;;;5062232;28;20102;-69
2023/12/23 10:46:23;;;;;;;6.25;1.88;;;6.70;99.90;;;;;;5070647;28;20552;-68
2023/12/23 10:48:51;;;;;;;5.25;1.55;;;6.70;99.90;;;;;;5093596;28;20041;-68
2023/12/23 10:51:18;;;;;;;4.70;1.00;;;6.80;99.90;;;;;;5091942;28;20381;-68
2023/12/23 10:53:47;;;;;;;6.75;1.48;;;6.90;99.90;;;;;;5086358;28;20311;-68
2023/12/23 10:56:15;;;;;;;9.85;1.58;;;6.90;99.90;;;;;;5088591;28;20055;-69
2023/12/23 10:58:41;;;;;;;8.63;1.58;;;7.00;99.90;;;;;;5084915;28;20036;-68
2023/12/23 11:01:11;;;;;;;6.47;1.73;;;7.10;99.90;;;;;;5090471;28;20536;-68
2023/12/23 11:03:37;;;;;;;9.52;2.10;;;7.10;99.90;;;;;;5088655;28;20048;-68
2023/12/23 11:06:05;;;;;;;6.97;1.42;;;7.20;99.90;;;;;;5090995;28;20112;-68
2023/12/23 11:08:33;;;;;;;10.98;2.10;;;7.30;99.90;;;;;;5091098;28;20085;-68
2023/12/23 11:10:59;;;;;;;20.40;1.77;;;7.40;99.90;;;;;;5089517;28;20035;-69
2023/12/23 11:13:26;;;;;;;8.88;1.73;;;7.60;99.90;;;;;;5091311;28;20484;-68
2023/12/23 11:15:53;;;;;;;6.72;1.42;;;7.60;99.90;;;;;;5091169;28;20051;-69
2023/12/23 11:18:21;;;;;;;8.10;1.20;;;7.90;99.90;;;;;;5090758;28;20131;-69
2023/12/23 11:20:50;;;;;;;10.63;1.23;;;8.10;99.90;;;;;;5090196;28;20036;-68
2023/12/23 11:23:33;;;;;;;9.88;1.60;;;8.30;99.90;;;;;;5089987;28;20043;-68
2023/12/23 11:26:03;;;;;;;7.85;2.00;;;8.30;99.90;;;;;;5088972;28;20080;-69
2023/12/23 11:28:34;;;;;;;8.55;1.52;;;8.40;99.90;;;;;;5085726;28;20059;-69
2023/12/23 11:31:00;;;;;;;13.18;1.70;;;8.40;99.90;;;;;;5089219;28;20454;-68
2023/12/23 11:33:27;;;;;;;5.13;1.10;;;8.50;99.90;;;;;;5073034;28;20092;-69
2023/12/23 11:35:58;;;;;;;4.47;1.55;;;8.50;99.90;;;;;;5090506;28;20044;-68
2023/12/23 11:38:28;;;;;;;5.88;1.60;;;8.50;99.90;;;;;;5072694;28;20043;-69
2023/12/23 11:40:54;;;;;;;7.97;1.98;;;8.60;99.90;;;;;;5092097;28;20036;-69
2023/12/23 11:43:21;;;;;;;7.32;1.80;;;8.60;99.90;;;;;;5092241;28;20055;-69
2023/12/23 11:45:49;;;;;;;6.70;1.25;;;8.60;99.90;;;;;;5087903;28;20322;-68
2023/12/23 11:48:15;;;;;;;6.85;1.45;;;8.70;99.90;;;;;;5089075;28;20051;-68
2023/12/23 11:50:41;;;;;;;7.78;1.50;;;8.70;99.90;;;;;;5085058;28;20507;-68
2023/12/23 11:53:09;;;;;;;12.57;1.50;;;8.70;99.90;;;;;;5090347;28;20048;-68
2023/12/23 11:55:35;;;;;;;4.57;1.13;;;8.70;99.90;;;;;;5092678;28;20036;-69
2023/12/23 11:58:01;;;;;;;8.45;1.60;;;8.70;99.90;;;;;;5088475;28;20093;-68
2023/12/23 12:00:30;;;;;;;6.00;1.77;;;8.80;99.90;;;;;;5090001;28;20127;-69
2023/12/23 12:02:56;;;;;;;9.00;1.70;;;8.70;99.90;;;;;;5091992;28;20036;-69
2023/12/23 12:05:23;;;;;;;8.13;1.40;;;8.80;99.90;;;;;;5089315;28;20078;-69
2023/12/23 12:07:49;;;;;;;4.93;1.48;;;8.80;99.90;;;;;;5087422;28;20047;-69
2023/12/23 12:10:16;;;;;;;7.03;1.13;;;8.80;99.90;;;;;;5088125;28;20047;-68
2023/12/23 12:12:41;;;;;;;7.03;1.25;;;8.90;99.90;;;;;;5091198;28;20055;-68
2023/12/23 12:15:07;;;;;;;16.63;1.30;;;8.90;99.90;;;;;;5086961;28;20404;-68
2023/12/23 12:17:33;;;;;;;8.52;1.33;;;8.90;99.90;;;;;;5089449;28;20059;-69
2023/12/23 12:20:00;;;;;;;11.90;2.00;;;8.90;99.90;;;;;;5088172;28;20055;-69
2023/12/23 12:22:25;;;;;;;8.98;1.65;;;8.90;99.90;;;;;;5086029;28;20400;-69
2023/12/23 12:24:51;;;;;;;10.57;2.13;;;9.00;99.90;;;;;;5086563;28;20047;-69
2023/12/23 12:27:17;;;;;;;10.00;1.63;;;9.00;99.90;;;;;;5089992;28;20044;-69
2023/12/23 12:29:42;;;;;;;14.20;1.80;;;9.10;99.90;;;;;;5090244;28;20504;-69
2023/12/23 12:32:14;;;;;;;10.07;1.67;;;9.00;99.90;;;;;;5073024;28;20052;-69
2023/12/23 12:34:39;;;;;;;9.40;1.67;;;9.10;99.90;;;;;;5085926;28;20267;-69
2023/12/23 12:37:05;;;;;;;13.80;2.13;;;9.10;99.90;;;;;;5082908;28;20041;-69
2023/12/23 12:39:31;;;;;;;7.33;2.13;;;9.10;99.90;;;;;;5088373;28;20040;-69
2023/12/23 12:41:58;;;;;;;10.03;2.50;;;9.10;99.90;;;;;;5090210;28;20119;-69
2023/12/23 12:44:24;;;;;;;14.02;2.95;;;9.10;99.90;;;;;;5088493;28;20445;-69
2023/12/23 12:46:56;;;;;;;21.37;3.13;;;9.20;99.90;;;;;;5090909;28;20181;-69
2023/12/23 12:49:23;;;;;;;20.48;2.83;;;9.10;99.90;;;;;;5088194;28;20082;-69
2023/12/23 12:51:52;;;;;;;21.98;3.63;;;9.10;99.90;;;;;;5088801;28;20423;-69
2023/12/23 12:54:20;;;;;;;15.68;2.28;;;9.10;99.90;;;;;;5086254;28;20067;-70
2023/12/23 12:56:46;;;;;;;18.52;2.55;;;9.10;99.90;;;;;;5087040;28;20044;-70